sensor_id;sensor_type;location;lat;lon;timestamp;P1;durP1;ratioP1;P2;durP2;ratioP2
17482;SDS011;8858;52.308;20.994;2022-12-18T00:00:21;31.80;;;20.37;;
17482;SDS011;8858;52.308;20.994;2022-12-18T00:02:53;30.10;;;19.27;;
17482;SDS011;8858;52.308;20.994;2022-12-18T00:05:23;29.30;;;19.70;;
17482;SDS011;8858;52.308;20.994;2022-12-18T00:07:51;31.50;;;19.53;;
17482;SDS011;8858;52.308;20.994;2022-12-18T00:10:20;32.67;;;20.60;;
17482;SDS011;8858;52.308;20.994;2022-12-18T00:12:48;29.40;;;19.03;;
17482;SDS011;8858;52.308;20.994;2022-12-18T00:15:18;24.60;;;16.43;;
17482;SDS011;8858;52.308;20.994;2022-12-18T00:17:46;26.40;;;17.17;;
17482;SDS011;8858;52.308;20.994;2022-12-18T00:20:16;24.37;;;16.13;;
17482;SDS011;8858;52.308;20.994;2022-12-18T00:22:55;26.40;;;16.83;;
17482;SDS011;8858;52.308;20.994;2022-12-18T00:25:23;26.43;;;16.63;;
17482;SDS011;8858;52.308;20.994;2022-12-18T00:27:51;27.77;;;17.27;;
17482;SDS011;8858;52.308;20.994;2022-12-18T00:30:20;26.97;;;16.17;;
17482;SDS011;8858;52.308;20.994;2022-12-18T00:32:52;26.30;;;17.00;;
17482;SDS011;8858;52.308;20.994;2022-12-18T00:35:21;27.07;;;17.03;;
17482;SDS011;8858;52.308;20.994;2022-12-18T00:37:51;27.23;;;17.53;;
17482;SDS011;8858;52.308;20.994;2022-12-18T00:40:22;27.20;;;17.47;;
17482;SDS011;8858;52.308;20.994;2022-12-18T00:42:52;30.47;;;18.17;;
17482;SDS011;8858;52.308;20.994;2022-12-18T00:45:22;21.70;;;15.07;;
17482;SDS011;8858;52.308;20.994;2022-12-18T00:47:54;26.93;;;16.40;;
17482;SDS011;8858;52.308;20.994;2022-12-18T00:50:25;24.63;;;16.00;;
17482;SDS011;8858;52.308;20.994;2022-12-18T00:52:54;26.97;;;16.80;;
17482;SDS011;8858;52.308;20.994;2022-12-18T00:55:22;24.10;;;15.83;;
17482;SDS011;8858;52.308;20.994;2022-12-18T00:57:51;25.63;;;16.10;;
17482;SDS011;8858;52.308;20.994;2022-12-18T01:00:22;25.70;;;16.00;;
17482;SDS011;8858;52.308;20.994;2022-12-18T01:02:51;24.53;;;16.60;;
17482;SDS011;8858;52.308;20.994;2022-12-18T01:05:20;23.97;;;15.67;;
17482;SDS011;8858;52.308;20.994;2022-12-18T01:07:51;23.67;;;15.47;;
17482;SDS011;8858;52.308;20.994;2022-12-18T01:10:20;24.77;;;16.20;;
17482;SDS011;8858;52.308;20.994;2022-12-18T01:12:56;21.43;;;14.20;;
17482;SDS011;8858;52.308;20.994;2022-12-18T01:15:28;25.70;;;14.87;;
17482;SDS011;8858;52.308;20.994;2022-12-18T01:17:56;24.10;;;15.20;;
17482;SDS011;8858;52.308;20.994;2022-12-18T01:20:25;27.70;;;14.93;;
17482;SDS011;8858;52.308;20.994;2022-12-18T01:22:55;23.40;;;14.77;;
17482;SDS011;8858;52.308;20.994;2022-12-18T01:25:25;24.77;;;15.27;;
17482;SDS011;8858;52.308;20.994;2022-12-18T01:27:55;24.17;;;15.37;;
17482;SDS011;8858;52.308;20.994;2022-12-18T01:30:28;21.23;;;14.37;;
17482;SDS011;8858;52.308;20.994;2022-12-18T01:32:56;24.77;;;15.50;;
17482;SDS011;8858;52.308;20.994;2022-12-18T01:35:25;20.43;;;13.93;;
17482;SDS011;8858;52.308;20.994;2022-12-18T01:37:55;22.53;;;14.27;;
17482;SDS011;8858;52.308;20.994;2022-12-18T01:40:27;20.57;;;13.77;;
17482;SDS011;8858;52.308;20.994;2022-12-18T01:42:55;22.33;;;14.53;;
17482;SDS011;8858;52.308;20.994;2022-12-18T01:45:24;24.83;;;14.80;;
17482;SDS011;8858;52.308;20.994;2022-12-18T01:47:55;24.97;;;14.40;;
17482;SDS011;8858;52.308;20.994;2022-12-18T01:50:28;21.33;;;13.80;;
17482;SDS011;8858;52.308;20.994;2022-12-18T01:53:02;21.60;;;14.30;;
17482;SDS011;8858;52.308;20.994;2022-12-18T01:55:35;22.03;;;13.63;;
17482;SDS011;8858;52.308;20.994;2022-12-18T01:58:08;22.57;;;13.57;;
17482;SDS011;8858;52.308;20.994;2022-12-18T02:00:37;20.20;;;13.73;;
17482;SDS011;8858;52.308;20.994;2022-12-18T02:03:06;19.77;;;13.13;;
17482;SDS011;8858;52.308;20.994;2022-12-18T02:05:41;24.90;;;13.60;;
17482;SDS011;8858;52.308;20.994;2022-12-18T02:08:19;19.67;;;14.00;;
17482;SDS011;8858;52.308;20.994;2022-12-18T02:10:52;20.73;;;13.07;;
17482;SDS011;8858;52.308;20.994;2022-12-18T02:13:32;22.67;;;13.93;;
17482;SDS011;8858;52.308;20.994;2022-12-18T02:16:09;22.27;;;13.53;;
17482;SDS011;8858;52.308;20.994;2022-12-18T02:18:44;18.50;;;12.50;;
17482;SDS011;8858;52.308;20.994;2022-12-18T02:21:18;22.27;;;13.30;;
17482;SDS011;8858;52.308;20.994;2022-12-18T02:24:01;21.13;;;13.23;;
17482;SDS011;8858;52.308;20.994;2022-12-18T02:26:47;24.03;;;13.63;;
17482;SDS011;8858;52.308;20.994;2022-12-18T02:29:21;20.57;;;13.07;;
17482;SDS011;8858;52.308;20.994;2022-12-18T02:31:54;23.27;;;12.67;;
17482;SDS011;8858;52.308;20.994;2022-12-18T02:34:26;16.70;;;11.87;;
17482;SDS011;8858;52.308;20.994;2022-12-18T02:36:57;20.63;;;12.57;;
17482;SDS011;8858;52.308;20.994;2022-12-18T02:39:29;21.70;;;13.03;;
17482;SDS011;8858;52.308;20.994;2022-12-18T02:42:04;21.43;;;12.33;;
17482;SDS011;8858;52.308;20.994;2022-12-18T02:44:41;19.87;;;11.97;;
17482;SDS011;8858;52.308;20.994;2022-12-18T02:47:10;23.17;;;12.33;;
17482;SDS011;8858;52.308;20.994;2022-12-18T02:49:44;18.40;;;11.43;;
17482;SDS011;8858;52.308;20.994;2022-12-18T02:52:21;16.07;;;11.53;;
17482;SDS011;8858;52.308;20.994;2022-12-18T02:55:00;21.67;;;13.27;;
17482;SDS011;8858;52.308;20.994;2022-12-18T02:57:43;19.20;;;11.60;;
17482;SDS011;8858;52.308;20.994;2022-12-18T03:00:24;16.60;;;11.07;;
17482;SDS011;8858;52.308;20.994;2022-12-18T03:02:58;18.13;;;11.60;;
17482;SDS011;8858;52.308;20.994;2022-12-18T03:05:33;20.17;;;11.43;;
17482;SDS011;8858;52.308;20.994;2022-12-18T03:08:06;20.90;;;11.80;;
17482;SDS011;8858;52.308;20.994;2022-12-18T03:10:42;17.07;;;11.17;;
17482;SDS011;8858;52.308;20.994;2022-12-18T03:13:18;17.23;;;11.33;;
17482;SDS011;8858;52.308;20.994;2022-12-18T03:15:51;18.07;;;11.37;;
17482;SDS011;8858;52.308;20.994;2022-12-18T03:18:23;15.30;;;10.97;;
17482;SDS011;8858;52.308;20.994;2022-12-18T03:20:58;17.83;;;11.37;;
17482;SDS011;8858;52.308;20.994;2022-12-18T03:23:34;18.83;;;11.80;;
17482;SDS011;8858;52.308;20.994;2022-12-18T03:26:09;20.97;;;11.93;;
17482;SDS011;8858;52.308;20.994;2022-12-18T03:28:42;19.07;;;11.97;;
17482;SDS011;8858;52.308;20.994;2022-12-18T03:31:17;20.13;;;12.07;;
17482;SDS011;8858;52.308;20.994;2022-12-18T03:33:51;19.63;;;12.10;;
17482;SDS011;8858;52.308;20.994;2022-12-18T03:36:26;18.50;;;11.23;;
17482;SDS011;8858;52.308;20.994;2022-12-18T03:38:55;17.63;;;11.37;;
17482;SDS011;8858;52.308;20.994;2022-12-18T03:41:31;18.07;;;11.47;;
17482;SDS011;8858;52.308;20.994;2022-12-18T03:44:23;18.27;;;10.93;;
17482;SDS011;8858;52.308;20.994;2022-12-18T03:46:58;15.43;;;10.70;;
17482;SDS011;8858;52.308;20.994;2022-12-18T03:49:34;17.37;;;11.23;;
17482;SDS011;8858;52.308;20.994;2022-12-18T03:52:09;19.07;;;11.23;;
17482;SDS011;8858;52.308;20.994;2022-12-18T03:54:40;17.40;;;11.53;;
17482;SDS011;8858;52.308;20.994;2022-12-18T03:57:14;19.03;;;11.53;;
17482;SDS011;8858;52.308;20.994;2022-12-18T03:59:51;16.07;;;11.03;;
17482;SDS011;8858;52.308;20.994;2022-12-18T04:02:26;19.03;;;11.70;;
17482;SDS011;8858;52.308;20.994;2022-12-18T04:05:00;16.80;;;11.10;;
17482;SDS011;8858;52.308;20.994;2022-12-18T04:07:34;20.17;;;11.83;;
17482;SDS011;8858;52.308;20.994;2022-12-18T04:10:07;19.53;;;11.53;;
17482;SDS011;8858;52.308;20.994;2022-12-18T04:12:39;17.27;;;11.23;;
17482;SDS011;8858;52.308;20.994;2022-12-18T04:15:11;16.93;;;11.37;;
17482;SDS011;8858;52.308;20.994;2022-12-18T04:17:43;18.17;;;11.57;;
17482;SDS011;8858;52.308;20.994;2022-12-18T04:20:21;17.20;;;11.17;;
17482;SDS011;8858;52.308;20.994;2022-12-18T04:22:49;19.87;;;11.37;;
17482;SDS011;8858;52.308;20.994;2022-12-18T04:25:19;16.90;;;11.47;;
17482;SDS011;8858;52.308;20.994;2022-12-18T04:28:03;20.53;;;11.33;;
17482;SDS011;8858;52.308;20.994;2022-12-18T04:30:34;17.30;;;11.30;;
17482;SDS011;8858;52.308;20.994;2022-12-18T04:33:07;16.33;;;11.10;;
17482;SDS011;8858;52.308;20.994;2022-12-18T04:35:40;17.77;;;11.70;;
17482;SDS011;8858;52.308;20.994;2022-12-18T04:38:13;18.30;;;11.53;;
17482;SDS011;8858;52.308;20.994;2022-12-18T04:40:44;16.87;;;11.87;;
17482;SDS011;8858;52.308;20.994;2022-12-18T04:43:23;19.47;;;11.53;;
17482;SDS011;8858;52.308;20.994;2022-12-18T04:46:02;19.87;;;12.13;;
17482;SDS011;8858;52.308;20.994;2022-12-18T04:48:31;16.07;;;11.03;;
17482;SDS011;8858;52.308;20.994;2022-12-18T04:51:03;16.33;;;11.00;;
17482;SDS011;8858;52.308;20.994;2022-12-18T04:53:35;16.87;;;10.60;;
17482;SDS011;8858;52.308;20.994;2022-12-18T04:56:05;19.20;;;11.73;;
17482;SDS011;8858;52.308;20.994;2022-12-18T04:58:35;17.70;;;11.53;;
17482;SDS011;8858;52.308;20.994;2022-12-18T05:01:05;17.50;;;11.27;;
17482;SDS011;8858;52.308;20.994;2022-12-18T05:03:35;17.87;;;10.67;;
17482;SDS011;8858;52.308;20.994;2022-12-18T05:06:06;20.57;;;12.20;;
17482;SDS011;8858;52.308;20.994;2022-12-18T05:08:35;19.77;;;12.33;;
17482;SDS011;8858;52.308;20.994;2022-12-18T05:11:05;21.47;;;13.63;;
17482;SDS011;8858;52.308;20.994;2022-12-18T05:13:36;21.90;;;12.63;;
17482;SDS011;8858;52.308;20.994;2022-12-18T05:16:07;21.63;;;12.30;;
17482;SDS011;8858;52.308;20.994;2022-12-18T05:18:36;17.67;;;11.77;;
17482;SDS011;8858;52.308;20.994;2022-12-18T05:21:09;20.50;;;12.77;;
17482;SDS011;8858;52.308;20.994;2022-12-18T05:23:40;20.80;;;12.13;;
17482;SDS011;8858;52.308;20.994;2022-12-18T05:26:09;20.07;;;12.33;;
17482;SDS011;8858;52.308;20.994;2022-12-18T05:28:47;21.47;;;12.47;;
17482;SDS011;8858;52.308;20.994;2022-12-18T05:31:16;19.93;;;12.43;;
17482;SDS011;8858;52.308;20.994;2022-12-18T05:33:45;18.57;;;12.27;;
17482;SDS011;8858;52.308;20.994;2022-12-18T05:36:13;20.23;;;12.53;;
17482;SDS011;8858;52.308;20.994;2022-12-18T05:38:45;21.60;;;12.63;;
17482;SDS011;8858;52.308;20.994;2022-12-18T05:41:17;20.93;;;12.30;;
17482;SDS011;8858;52.308;20.994;2022-12-18T05:43:45;20.37;;;12.47;;
17482;SDS011;8858;52.308;20.994;2022-12-18T05:46:13;20.00;;;12.37;;
17482;SDS011;8858;52.308;20.994;2022-12-18T05:48:45;22.60;;;12.77;;
17482;SDS011;8858;52.308;20.994;2022-12-18T05:51:15;23.73;;;13.13;;
17482;SDS011;8858;52.308;20.994;2022-12-18T05:53:46;24.73;;;14.50;;
17482;SDS011;8858;52.308;20.994;2022-12-18T05:56:17;27.93;;;15.00;;
17482;SDS011;8858;52.308;20.994;2022-12-18T05:58:51;31.60;;;17.57;;
17482;SDS011;8858;52.308;20.994;2022-12-18T06:01:21;27.07;;;16.17;;
17482;SDS011;8858;52.308;20.994;2022-12-18T06:03:52;29.20;;;16.47;;
17482;SDS011;8858;52.308;20.994;2022-12-18T06:06:21;28.73;;;16.77;;
17482;SDS011;8858;52.308;20.994;2022-12-18T06:08:51;31.23;;;17.57;;
17482;SDS011;8858;52.308;20.994;2022-12-18T06:11:21;30.30;;;17.17;;
17482;SDS011;8858;52.308;20.994;2022-12-18T06:13:51;35.67;;;17.90;;
17482;SDS011;8858;52.308;20.994;2022-12-18T06:16:27;33.10;;;18.20;;
17482;SDS011;8858;52.308;20.994;2022-12-18T06:18:58;36.07;;;18.70;;
17482;SDS011;8858;52.308;20.994;2022-12-18T06:21:27;38.83;;;20.40;;
17482;SDS011;8858;52.308;20.994;2022-12-18T06:23:57;34.70;;;19.37;;
17482;SDS011;8858;52.308;20.994;2022-12-18T06:26:26;34.90;;;19.67;;
17482;SDS011;8858;52.308;20.994;2022-12-18T06:28:56;38.53;;;21.73;;
17482;SDS011;8858;52.308;20.994;2022-12-18T06:31:24;39.03;;;19.80;;
17482;SDS011;8858;52.308;20.994;2022-12-18T06:33:54;37.40;;;20.27;;
17482;SDS011;8858;52.308;20.994;2022-12-18T06:36:24;37.43;;;19.97;;
17482;SDS011;8858;52.308;20.994;2022-12-18T06:38:58;42.93;;;21.03;;
17482;SDS011;8858;52.308;20.994;2022-12-18T06:41:26;41.00;;;20.93;;
17482;SDS011;8858;52.308;20.994;2022-12-18T06:43:55;44.17;;;22.40;;
17482;SDS011;8858;52.308;20.994;2022-12-18T06:46:25;39.37;;;21.47;;
17482;SDS011;8858;52.308;20.994;2022-12-18T06:48:54;45.43;;;22.93;;
17482;SDS011;8858;52.308;20.994;2022-12-18T06:51:24;41.53;;;21.63;;
17482;SDS011;8858;52.308;20.994;2022-12-18T06:53:54;52.33;;;23.57;;
17482;SDS011;8858;52.308;20.994;2022-12-18T06:56:22;44.10;;;22.10;;
17482;SDS011;8858;52.308;20.994;2022-12-18T06:58:51;49.47;;;22.73;;
17482;SDS011;8858;52.308;20.994;2022-12-18T07:01:21;50.97;;;23.37;;
17482;SDS011;8858;52.308;20.994;2022-12-18T07:03:51;42.00;;;22.03;;
17482;SDS011;8858;52.308;20.994;2022-12-18T07:06:22;46.50;;;22.97;;
17482;SDS011;8858;52.308;20.994;2022-12-18T07:08:56;47.67;;;23.17;;
17482;SDS011;8858;52.308;20.994;2022-12-18T07:11:24;46.50;;;23.73;;
17482;SDS011;8858;52.308;20.994;2022-12-18T07:13:52;52.90;;;24.23;;
17482;SDS011;8858;52.308;20.994;2022-12-18T07:16:21;47.40;;;23.80;;
17482;SDS011;8858;52.308;20.994;2022-12-18T07:18:51;47.63;;;23.60;;
17482;SDS011;8858;52.308;20.994;2022-12-18T07:21:26;50.13;;;23.50;;
17482;SDS011;8858;52.308;20.994;2022-12-18T07:23:56;48.10;;;22.33;;
17482;SDS011;8858;52.308;20.994;2022-12-18T07:26:25;46.63;;;23.07;;
17482;SDS011;8858;52.308;20.994;2022-12-18T07:28:54;47.63;;;23.80;;
17482;SDS011;8858;52.308;20.994;2022-12-18T07:31:26;48.40;;;23.53;;
17482;SDS011;8858;52.308;20.994;2022-12-18T07:33:54;44.43;;;22.67;;
17482;SDS011;8858;52.308;20.994;2022-12-18T07:36:26;49.53;;;23.20;;
17482;SDS011;8858;52.308;20.994;2022-12-18T07:38:54;51.13;;;24.77;;
17482;SDS011;8858;52.308;20.994;2022-12-18T07:41:23;48.33;;;23.47;;
17482;SDS011;8858;52.308;20.994;2022-12-18T07:43:51;53.67;;;26.43;;
17482;SDS011;8858;52.308;20.994;2022-12-18T07:46:22;53.33;;;25.37;;
17482;SDS011;8858;52.308;20.994;2022-12-18T07:48:50;53.50;;;25.33;;
17482;SDS011;8858;52.308;20.994;2022-12-18T07:51:18;54.57;;;26.43;;
17482;SDS011;8858;52.308;20.994;2022-12-18T07:53:48;53.17;;;25.93;;
17482;SDS011;8858;52.308;20.994;2022-12-18T07:56:18;57.93;;;26.43;;
17482;SDS011;8858;52.308;20.994;2022-12-18T07:58:54;58.63;;;26.43;;
17482;SDS011;8858;52.308;20.994;2022-12-18T08:01:22;56.07;;;26.43;;
17482;SDS011;8858;52.308;20.994;2022-12-18T08:03:51;53.60;;;25.50;;
17482;SDS011;8858;52.308;20.994;2022-12-18T08:06:19;53.10;;;25.73;;
17482;SDS011;8858;52.308;20.994;2022-12-18T08:08:51;59.13;;;27.83;;
17482;SDS011;8858;52.308;20.994;2022-12-18T08:11:20;52.27;;;24.73;;
17482;SDS011;8858;52.308;20.994;2022-12-18T08:13:50;57.40;;;27.03;;
17482;SDS011;8858;52.308;20.994;2022-12-18T08:16:19;51.33;;;23.03;;
17482;SDS011;8858;52.308;20.994;2022-12-18T08:18:49;54.73;;;27.87;;
17482;SDS011;8858;52.308;20.994;2022-12-18T08:21:19;52.70;;;26.90;;
17482;SDS011;8858;52.308;20.994;2022-12-18T08:23:52;55.73;;;25.30;;
17482;SDS011;8858;52.308;20.994;2022-12-18T08:26:21;48.80;;;24.43;;
17482;SDS011;8858;52.308;20.994;2022-12-18T08:28:51;50.87;;;23.80;;
17482;SDS011;8858;52.308;20.994;2022-12-18T08:31:24;48.13;;;23.20;;
17482;SDS011;8858;52.308;20.994;2022-12-18T08:33:54;50.53;;;25.30;;
17482;SDS011;8858;52.308;20.994;2022-12-18T08:36:24;52.43;;;25.43;;
17482;SDS011;8858;52.308;20.994;2022-12-18T08:38:54;46.90;;;23.53;;
17482;SDS011;8858;52.308;20.994;2022-12-18T08:41:22;44.63;;;23.50;;
17482;SDS011;8858;52.308;20.994;2022-12-18T08:43:52;49.93;;;24.30;;
17482;SDS011;8858;52.308;20.994;2022-12-18T08:46:38;43.30;;;23.10;;
17482;SDS011;8858;52.308;20.994;2022-12-18T08:49:10;45.63;;;23.47;;
17482;SDS011;8858;52.308;20.994;2022-12-18T08:51:39;46.83;;;24.17;;
17482;SDS011;8858;52.308;20.994;2022-12-18T08:54:10;45.83;;;23.73;;
17482;SDS011;8858;52.308;20.994;2022-12-18T08:56:39;52.07;;;24.63;;
17482;SDS011;8858;52.308;20.994;2022-12-18T08:59:08;42.07;;;21.33;;
17482;SDS011;8858;52.308;20.994;2022-12-18T09:01:45;44.73;;;22.23;;
17482;SDS011;8858;52.308;20.994;2022-12-18T09:04:14;38.27;;;19.70;;
17482;SDS011;8858;52.308;20.994;2022-12-18T09:06:46;41.90;;;21.90;;
17482;SDS011;8858;52.308;20.994;2022-12-18T09:09:15;37.80;;;20.10;;
17482;SDS011;8858;52.308;20.994;2022-12-18T09:11:48;41.67;;;20.67;;
17482;SDS011;8858;52.308;20.994;2022-12-18T09:14:19;43.57;;;20.73;;
17482;SDS011;8858;52.308;20.994;2022-12-18T09:16:51;40.77;;;22.37;;
17482;SDS011;8858;52.308;20.994;2022-12-18T09:19:19;38.27;;;21.00;;
17482;SDS011;8858;52.308;20.994;2022-12-18T09:21:47;38.10;;;19.43;;
17482;SDS011;8858;52.308;20.994;2022-12-18T09:24:17;44.87;;;21.47;;
17482;SDS011;8858;52.308;20.994;2022-12-18T09:26:52;46.97;;;21.90;;
17482;SDS011;8858;52.308;20.994;2022-12-18T09:29:23;38.30;;;20.80;;
17482;SDS011;8858;52.308;20.994;2022-12-18T09:31:51;42.57;;;21.17;;
17482;SDS011;8858;52.308;20.994;2022-12-18T09:34:19;41.13;;;21.83;;
17482;SDS011;8858;52.308;20.994;2022-12-18T09:36:48;41.53;;;21.60;;
17482;SDS011;8858;52.308;20.994;2022-12-18T09:39:24;46.23;;;23.47;;
17482;SDS011;8858;52.308;20.994;2022-12-18T09:41:53;47.43;;;23.27;;
17482;SDS011;8858;52.308;20.994;2022-12-18T09:44:29;42.87;;;23.50;;
17482;SDS011;8858;52.308;20.994;2022-12-18T09:47:08;42.70;;;23.77;;
17482;SDS011;8858;52.308;20.994;2022-12-18T09:49:40;41.60;;;21.57;;
17482;SDS011;8858;52.308;20.994;2022-12-18T09:52:13;40.53;;;21.07;;
17482;SDS011;8858;52.308;20.994;2022-12-18T09:54:48;38.80;;;21.37;;
17482;SDS011;8858;52.308;20.994;2022-12-18T09:57:21;40.40;;;21.30;;
17482;SDS011;8858;52.308;20.994;2022-12-18T09:59:53;44.27;;;21.70;;
17482;SDS011;8858;52.308;20.994;2022-12-18T10:02:24;44.60;;;21.67;;
17482;SDS011;8858;52.308;20.994;2022-12-18T10:05:02;43.13;;;22.23;;
17482;SDS011;8858;52.308;20.994;2022-12-18T10:07:38;42.43;;;20.60;;
17482;SDS011;8858;52.308;20.994;2022-12-18T10:10:21;38.97;;;20.33;;
17482;SDS011;8858;52.308;20.994;2022-12-18T10:13:03;40.33;;;21.17;;
17482;SDS011;8858;52.308;20.994;2022-12-18T10:15:48;37.93;;;17.87;;
17482;SDS011;8858;52.308;20.994;2022-12-18T10:18:26;35.57;;;19.83;;
17482;SDS011;8858;52.308;20.994;2022-12-18T10:21:08;43.47;;;21.83;;
17482;SDS011;8858;52.308;20.994;2022-12-18T10:23:43;44.63;;;22.63;;
17482;SDS011;8858;52.308;20.994;2022-12-18T10:26:20;42.97;;;21.70;;
17482;SDS011;8858;52.308;20.994;2022-12-18T10:28:48;39.43;;;21.67;;
17482;SDS011;8858;52.308;20.994;2022-12-18T10:31:22;40.80;;;21.00;;
17482;SDS011;8858;52.308;20.994;2022-12-18T10:33:54;41.87;;;22.57;;
17482;SDS011;8858;52.308;20.994;2022-12-18T10:36:24;44.07;;;21.83;;
17482;SDS011;8858;52.308;20.994;2022-12-18T10:38:52;40.53;;;22.57;;
17482;SDS011;8858;52.308;20.994;2022-12-18T10:41:25;41.20;;;21.50;;
17482;SDS011;8858;52.308;20.994;2022-12-18T10:44:11;38.93;;;21.30;;
17482;SDS011;8858;52.308;20.994;2022-12-18T10:46:46;40.47;;;23.47;;
17482;SDS011;8858;52.308;20.994;2022-12-18T10:49:19;42.33;;;22.63;;
17482;SDS011;8858;52.308;20.994;2022-12-18T10:52:03;40.03;;;21.87;;
17482;SDS011;8858;52.308;20.994;2022-12-18T10:54:33;42.77;;;21.73;;
17482;SDS011;8858;52.308;20.994;2022-12-18T10:57:15;35.97;;;20.90;;
17482;SDS011;8858;52.308;20.994;2022-12-18T10:59:50;40.50;;;21.80;;
17482;SDS011;8858;52.308;20.994;2022-12-18T11:02:26;36.60;;;21.10;;
17482;SDS011;8858;52.308;20.994;2022-12-18T11:05:01;37.83;;;22.07;;
17482;SDS011;8858;52.308;20.994;2022-12-18T11:07:46;38.27;;;22.20;;
17482;SDS011;8858;52.308;20.994;2022-12-18T11:10:20;39.53;;;21.57;;
17482;SDS011;8858;52.308;20.994;2022-12-18T11:12:52;38.63;;;22.63;;
17482;SDS011;8858;52.308;20.994;2022-12-18T11:15:25;42.97;;;22.73;;
17482;SDS011;8858;52.308;20.994;2022-12-18T11:17:56;39.07;;;22.60;;
17482;SDS011;8858;52.308;20.994;2022-12-18T11:20:30;42.00;;;22.50;;
17482;SDS011;8858;52.308;20.994;2022-12-18T11:23:03;40.80;;;22.43;;
17482;SDS011;8858;52.308;20.994;2022-12-18T11:25:39;36.37;;;21.50;;
17482;SDS011;8858;52.308;20.994;2022-12-18T11:28:28;38.63;;;22.33;;
17482;SDS011;8858;52.308;20.994;2022-12-18T11:33:57;43.73;;;22.37;;
17482;SDS011;8858;52.308;20.994;2022-12-18T11:36:56;40.17;;;21.77;;
17482;SDS011;8858;52.308;20.994;2022-12-18T11:39:30;41.33;;;22.23;;
17482;SDS011;8858;52.308;20.994;2022-12-18T11:42:09;38.80;;;22.23;;
17482;SDS011;8858;52.308;20.994;2022-12-18T11:44:47;42.33;;;23.10;;
17482;SDS011;8858;52.308;20.994;2022-12-18T11:47:20;39.47;;;22.90;;
17482;SDS011;8858;52.308;20.994;2022-12-18T11:49:52;43.57;;;24.13;;
17482;SDS011;8858;52.308;20.994;2022-12-18T11:52:24;43.33;;;23.80;;
17482;SDS011;8858;52.308;20.994;2022-12-18T11:54:58;43.63;;;24.87;;
17482;SDS011;8858;52.308;20.994;2022-12-18T11:57:31;48.00;;;24.20;;
17482;SDS011;8858;52.308;20.994;2022-12-18T12:00:11;46.53;;;25.43;;
17482;SDS011;8858;52.308;20.994;2022-12-18T12:02:48;49.17;;;24.70;;
17482;SDS011;8858;52.308;20.994;2022-12-18T12:05:42;42.70;;;23.60;;
17482;SDS011;8858;52.308;20.994;2022-12-18T12:08:22;48.73;;;25.60;;
17482;SDS011;8858;52.308;20.994;2022-12-18T12:10:57;52.43;;;27.37;;
17482;SDS011;8858;52.308;20.994;2022-12-18T12:13:35;48.50;;;26.70;;
17482;SDS011;8858;52.308;20.994;2022-12-18T12:16:20;49.33;;;26.63;;
17482;SDS011;8858;52.308;20.994;2022-12-18T12:19:00;48.57;;;26.67;;
17482;SDS011;8858;52.308;20.994;2022-12-18T12:21:40;47.43;;;26.63;;
17482;SDS011;8858;52.308;20.994;2022-12-18T12:24:19;53.13;;;29.40;;
17482;SDS011;8858;52.308;20.994;2022-12-18T12:26:57;48.07;;;27.07;;
17482;SDS011;8858;52.308;20.994;2022-12-18T12:29:40;49.27;;;27.60;;
17482;SDS011;8858;52.308;20.994;2022-12-18T12:32:22;51.40;;;26.93;;
17482;SDS011;8858;52.308;20.994;2022-12-18T12:35:03;55.97;;;28.20;;
17482;SDS011;8858;52.308;20.994;2022-12-18T12:37:44;55.70;;;28.10;;
17482;SDS011;8858;52.308;20.994;2022-12-18T12:40:18;56.97;;;27.50;;
17482;SDS011;8858;52.308;20.994;2022-12-18T12:43:12;55.73;;;29.37;;
17482;SDS011;8858;52.308;20.994;2022-12-18T12:45:50;53.63;;;30.23;;
17482;SDS011;8858;52.308;20.994;2022-12-18T12:48:37;58.87;;;29.37;;
17482;SDS011;8858;52.308;20.994;2022-12-18T12:51:12;54.30;;;28.57;;
17482;SDS011;8858;52.308;20.994;2022-12-18T12:53:45;53.80;;;28.97;;
17482;SDS011;8858;52.308;20.994;2022-12-18T12:56:16;52.27;;;29.40;;
17482;SDS011;8858;52.308;20.994;2022-12-18T12:58:50;52.03;;;28.27;;
17482;SDS011;8858;52.308;20.994;2022-12-18T13:01:28;53.97;;;28.63;;
17482;SDS011;8858;52.308;20.994;2022-12-18T13:04:06;47.93;;;28.37;;
17482;SDS011;8858;52.308;20.994;2022-12-18T13:06:45;55.17;;;28.30;;
17482;SDS011;8858;52.308;20.994;2022-12-18T13:09:19;53.47;;;27.97;;
17482;SDS011;8858;52.308;20.994;2022-12-18T13:11:47;54.43;;;29.63;;
17482;SDS011;8858;52.308;20.994;2022-12-18T13:14:34;50.43;;;28.67;;
17482;SDS011;8858;52.308;20.994;2022-12-18T13:20:08;53.43;;;29.10;;
17482;SDS011;8858;52.308;20.994;2022-12-18T13:22:43;54.80;;;29.70;;
17482;SDS011;8858;52.308;20.994;2022-12-18T13:25:32;54.07;;;29.10;;
17482;SDS011;8858;52.308;20.994;2022-12-18T13:28:08;55.57;;;28.63;;
17482;SDS011;8858;52.308;20.994;2022-12-18T13:36:37;55.80;;;29.07;;
17482;SDS011;8858;52.308;20.994;2022-12-18T13:48:22;56.07;;;30.10;;
17482;SDS011;8858;52.308;20.994;2022-12-18T13:50:52;52.03;;;28.30;;
17482;SDS011;8858;52.308;20.994;2022-12-18T13:53:28;53.87;;;29.07;;
17482;SDS011;8858;52.308;20.994;2022-12-18T13:55:59;56.00;;;30.37;;
17482;SDS011;8858;52.308;20.994;2022-12-18T13:58:29;52.80;;;29.97;;
17482;SDS011;8858;52.308;20.994;2022-12-18T14:00:57;53.50;;;28.67;;
17482;SDS011;8858;52.308;20.994;2022-12-18T14:03:28;59.23;;;30.23;;
17482;SDS011;8858;52.308;20.994;2022-12-18T14:06:05;56.33;;;29.70;;
17482;SDS011;8858;52.308;20.994;2022-12-18T14:08:37;52.23;;;28.93;;
17482;SDS011;8858;52.308;20.994;2022-12-18T14:11:16;62.87;;;31.63;;
17482;SDS011;8858;52.308;20.994;2022-12-18T14:13:48;54.60;;;29.30;;
17482;SDS011;8858;52.308;20.994;2022-12-18T14:16:16;59.43;;;30.03;;
17482;SDS011;8858;52.308;20.994;2022-12-18T14:18:45;55.40;;;29.73;;
17482;SDS011;8858;52.308;20.994;2022-12-18T14:21:20;57.97;;;30.07;;
17482;SDS011;8858;52.308;20.994;2022-12-18T14:24:03;53.33;;;28.77;;
17482;SDS011;8858;52.308;20.994;2022-12-18T14:26:33;55.73;;;30.53;;
17482;SDS011;8858;52.308;20.994;2022-12-18T14:29:17;54.70;;;28.50;;
17482;SDS011;8858;52.308;20.994;2022-12-18T14:32:04;51.67;;;28.17;;
17482;SDS011;8858;52.308;20.994;2022-12-18T14:34:45;54.30;;;28.20;;
17482;SDS011;8858;52.308;20.994;2022-12-18T14:37:16;53.00;;;28.57;;
17482;SDS011;8858;52.308;20.994;2022-12-18T14:39:56;51.77;;;27.23;;
17482;SDS011;8858;52.308;20.994;2022-12-18T14:42:32;49.63;;;26.07;;
17482;SDS011;8858;52.308;20.994;2022-12-18T14:48:11;55.17;;;27.63;;
17482;SDS011;8858;52.308;20.994;2022-12-18T14:50:55;54.87;;;26.87;;
17482;SDS011;8858;52.308;20.994;2022-12-18T14:53:36;51.13;;;27.47;;
17482;SDS011;8858;52.308;20.994;2022-12-18T14:56:18;53.20;;;27.57;;
17482;SDS011;8858;52.308;20.994;2022-12-18T14:58:50;59.50;;;29.77;;
17482;SDS011;8858;52.308;20.994;2022-12-18T15:01:22;57.67;;;29.37;;
17482;SDS011;8858;52.308;20.994;2022-12-18T15:03:54;59.63;;;29.70;;
17482;SDS011;8858;52.308;20.994;2022-12-18T15:06:28;62.17;;;33.97;;
17482;SDS011;8858;52.308;20.994;2022-12-18T15:09:00;72.47;;;38.50;;
17482;SDS011;8858;52.308;20.994;2022-12-18T15:11:44;54.30;;;29.00;;
17482;SDS011;8858;52.308;20.994;2022-12-18T15:14:33;50.70;;;23.73;;
17482;SDS011;8858;52.308;20.994;2022-12-18T15:17:03;50.50;;;26.40;;
17482;SDS011;8858;52.308;20.994;2022-12-18T15:19:38;54.03;;;27.90;;